Time;durP1;ratioP1;P1;durP2;ratioP2;P2;SDS_P1;SDS_P2;PMS_P1;PMS_P2;Temp;Humidity;BMP_temperature;BMP_pressure;BME280_temperature;BME280_humidity;BME280_pressure;Samples;Min_cycle;Max_cycle;Signal;HPM_P1;HPM_P2
2024/01/18 00:01:14;;;;;;;11.93;5.60;;;;;;;-1.21;100.00;99473.59;6086324;19;20010;-73
2024/01/18 00:03:19;;;;;;;10.77;4.93;;;;;;;-1.16;100.00;99464.06;6084130;19;20070;-74
2024/01/18 00:05:24;;;;;;;7.18;3.88;;;;;;;-1.17;100.00;99464.06;6083998;19;20286;-75
2024/01/18 00:07:29;;;;;;;6.78;3.83;;;;;;;-1.09;100.00;99475.13;6086947;19;20863;-73
2024/01/18 00:09:38;;;;;;;4.95;3.63;;;;;;;-1.22;100.00;99471.03;6085642;19;20011;-75
2024/01/18 00:11:43;;;;;;;7.45;3.67;;;;;;;-1.23;100.00;99482.22;6073794;19;20027;-75
2024/01/18 00:13:48;;;;;;;12.57;4.57;;;;;;;-1.27;100.00;99483.13;6085972;19;20006;-74
2024/01/18 00:15:56;;;;;;;6.90;4.25;;;;;;;-1.27;100.00;99489.13;6085109;19;20700;-75
2024/01/18 00:18:13;;;;;;;7.95;3.53;;;;;;;-1.26;100.00;99492.53;6082822;19;20003;-75
2024/01/18 00:20:19;;;;;;;7.18;3.72;;;;;;;-1.31;100.00;99495.22;6078617;19;20007;-72
2024/01/18 00:22:27;;;;;;;6.20;4.10;;;;;;;-1.34;100.00;99503.84;6085492;19;20002;-77
2024/01/18 00:24:32;;;;;;;8.88;4.97;;;;;;;-1.31;100.00;99502.09;6087835;19;20282;-76
2024/01/18 00:26:40;;;;;;;6.70;4.07;;;;;;;-1.35;100.00;99501.25;6086813;19;20010;-75
2024/01/18 00:28:45;;;;;;;5.25;3.65;;;;;;;-1.38;100.00;99506.47;6087816;19;20422;-76
2024/01/18 00:30:49;;;;;;;6.50;4.53;;;;;;;-1.42;100.00;99509.94;6086280;19;20014;-73
2024/01/18 00:32:52;;;;;;;7.78;3.70;;;;;;;-1.34;100.00;99513.31;6078374;19;20010;-76
2024/01/18 00:34:57;;;;;;;7.80;3.85;;;;;;;-1.39;100.00;99513.34;6077437;19;20025;-75
2024/01/18 00:37:05;;;;;;;7.75;4.03;;;;;;;-1.44;100.00;99520.28;6088525;19;20014;-76
2024/01/18 00:39:11;;;;;;;9.88;3.83;;;;;;;-1.38;100.00;99515.03;6084720;19;20070;-74
2024/01/18 00:41:16;;;;;;;10.23;3.00;;;;;;;-1.43;100.00;99514.25;6083709;19;20019;-76
2024/01/18 00:43:26;;;;;;;5.88;3.95;;;;;;;-1.50;100.00;99517.81;6087649;19;20006;-77
2024/01/18 00:45:29;;;;;;;7.10;4.88;;;;;;;-1.53;100.00;99511.81;6087641;19;20054;-73
2024/01/18 00:47:38;;;;;;;4.93;3.47;;;;;;;-1.52;100.00;99524.69;6085146;19;20451;-77
2024/01/18 00:49:43;;;;;;;8.05;4.25;;;;;;;-1.57;100.00;99526.47;6081391;19;20578;-75
2024/01/18 00:51:50;;;;;;;7.78;3.53;;;;;;;-1.59;100.00;99525.63;6086591;19;20036;-74
2024/01/18 00:53:59;;;;;;;4.75;2.92;;;;;;;-1.66;100.00;99531.72;6081580;19;20014;-75
2024/01/18 00:56:11;;;;;;;5.18;2.83;;;;;;;-1.74;100.00;99533.53;6082834;19;20578;-73
2024/01/18 00:58:20;;;;;;;6.40;3.38;;;;;;;-1.82;100.00;99536.19;6082857;19;20487;-74
2024/01/18 01:00:30;;;;;;;6.25;3.35;;;;;;;-1.86;100.00;99537.97;6085340;19;20058;-76
2024/01/18 01:02:37;;;;;;;4.75;3.03;;;;;;;-1.95;100.00;99543.19;6084655;19;20350;-76
2024/01/18 01:04:43;;;;;;;7.57;2.97;;;;;;;-2.04;100.00;99548.44;6083827;19;20011;-74
2024/01/18 01:06:48;;;;;;;6.57;3.60;;;;;;;-2.11;100.00;99546.78;6087557;19;20488;-74
2024/01/18 01:08:53;;;;;;;5.55;3.17;;;;;;;-2.19;100.00;99536.56;6081779;19;20010;-75
2024/01/18 01:11:05;;;;;;;4.28;3.17;;;;;;;-2.25;100.00;99547.78;6081662;19;20185;-75
2024/01/18 01:13:10;;;;;;;7.60;3.45;;;;;;;-2.30;100.00;99548.69;6087985;19;20027;-75
2024/01/18 01:15:15;;;;;;;6.95;3.45;;;;;;;-2.34;100.00;99552.16;6086783;19;20035;-75
2024/01/18 01:17:20;;;;;;;4.35;3.53;;;;;;;-2.41;100.00;99559.09;6083274;19;20011;-75
2024/01/18 01:19:25;;;;;;;5.25;2.25;;;;;;;-2.45;100.00;99553.13;6082700;19;20525;-76
2024/01/18 01:21:30;;;;;;;6.57;2.70;;;;;;;-2.42;100.00;99554.81;6078235;19;20502;-75
2024/01/18 01:23:41;;;;;;;4.07;2.72;;;;;;;-2.50;100.00;99556.56;6083328;19;20474;-75
2024/01/18 01:25:47;;;;;;;6.18;2.78;;;;;;;-2.56;100.00;99557.47;6083534;19;20384;-75
2024/01/18 01:27:54;;;;;;;3.35;2.42;;;;;;;-2.59;100.00;99561.81;6085908;19;20015;-76
2024/01/18 01:30:00;;;;;;;6.60;2.42;;;;;;;-2.66;100.00;99564.44;6083927;19;20012;-76
2024/01/18 01:32:06;;;;;;;4.88;2.67;;;;;;;-2.67;100.00;99560.13;6081661;19;20348;-76
2024/01/18 01:34:14;;;;;;;4.65;2.75;;;;;;;-2.70;100.00;99565.31;6077133;19;20494;-76
2024/01/18 01:36:16;;;;;;;3.30;2.15;;;;;;;-2.73;100.00;99564.47;6084518;19;20021;-76
2024/01/18 01:38:21;;;;;;;10.55;3.15;;;;;;;-2.79;100.00;99578.25;6085721;19;20017;-76
2024/01/18 01:40:26;;;;;;;5.63;2.83;;;;;;;-2.83;100.00;99573.13;6080061;19;20010;-74
2024/01/18 01:42:30;;;;;;;3.83;1.92;;;;;;;-2.87;100.00;99578.28;6083717;19;20019;-74
2024/01/18 01:44:36;;;;;;;5.85;3.47;;;;;;;-2.88;100.00;99570.56;6083182;19;20006;-73
2024/01/18 01:46:42;;;;;;;5.13;2.95;;;;;;;-2.87;100.00;99574.84;6084686;19;20035;-73
2024/01/18 01:48:45;;;;;;;5.63;2.97;;;;;;;-2.92;100.00;99572.31;6081444;19;20006;-76
2024/01/18 01:50:52;;;;;;;3.78;2.92;;;;;;;-2.97;100.00;99575.78;6082267;19;20010;-76
2024/01/18 01:52:58;;;;;;;4.60;3.00;;;;;;;-3.02;100.00;99578.38;6075089;19;20018;-74
2024/01/18 01:55:07;;;;;;;8.32;2.78;;;;;;;-3.05;100.00;99577.50;6079117;19;20089;-74
2024/01/18 01:57:22;;;;;;;9.97;3.17;;;;;;;-3.15;100.00;99585.28;6082771;19;20110;-74
2024/01/18 01:59:29;;;;;;;4.05;2.75;;;;;;;-3.16;100.00;99588.72;6079911;19;20371;-74
2024/01/18 02:01:35;;;;;;;8.43;3.50;;;;;;;-3.18;100.00;99590.44;6080916;19;20097;-74
2024/01/18 02:03:40;;;;;;;2.78;2.38;;;;;;;-3.16;100.00;99591.31;6080946;19;20010;-74
2024/01/18 02:05:46;;;;;;;3.58;2.05;;;;;;;-3.10;100.00;99593.81;6081491;19;20011;-74
2024/01/18 02:07:55;;;;;;;5.47;2.80;;;;;;;-3.03;100.00;99616.91;6081936;19;20325;-74
2024/01/18 02:10:02;;;;;;;7.57;2.72;;;;;;;-2.63;100.00;99612.41;6079518;19;20874;-74
2024/01/18 02:12:13;;;;;;;2.83;1.95;;;;;;;-1.86;100.00;99614.34;6082900;19;20010;-74
2024/01/18 02:14:16;;;;;;;4.38;1.88;;;;;;;-1.67;100.00;99612.44;6084396;19;20035;-74
2024/01/18 02:16:21;;;;;;;3.30;2.00;;;;;;;-1.55;100.00;99628.63;6083300;19;20047;-75
2024/01/18 02:18:26;;;;;;;4.20;1.60;;;;;;;-1.47;100.00;99623.38;6077151;19;20218;-74
2024/01/18 02:20:32;;;;;;;1.98;1.42;;;;;;;-1.48;100.00;99626.81;6084155;19;20014;-74
2024/01/18 02:22:41;;;;;;;1.95;1.20;;;;;;;-1.34;100.00;99619.81;6084835;19;20007;-75
2024/01/18 02:24:53;;;;;;;1.23;1.13;;;;;;;-1.37;100.00;99613.81;6077870;19;20007;-75
2024/01/18 02:27:02;;;;;;;;;;;;;;;-1.37;100.00;99622.41;6075150;19;20010;-75
2024/01/18 02:29:04;;;;;;;4.53;1.50;;;;;;;-1.45;100.00;99610.47;6082415;19;19921;-75
2024/01/18 02:31:12;;;;;;;1.63;1.55;;;;;;;-1.48;100.00;99618.25;6079928;19;20011;-74
2024/01/18 02:33:17;;;;;;;1.48;1.33;;;;;;;-1.52;100.00;99609.69;6073881;19;20024;-74
2024/01/18 02:35:23;;;;;;;1.48;1.35;;;;;;;-1.57;100.00;99606.31;6080257;19;20013;-74
2024/01/18 02:37:31;;;;;;;1.48;1.33;;;;;;;-1.62;100.00;99611.53;6084206;19;20004;-75
2024/01/18 02:39:40;;;;;;;1.40;1.30;;;;;;;-1.64;100.00;99608.09;6073642;19;20051;-75
2024/01/18 02:41:45;;;;;;;1.45;1.35;;;;;;;-1.78;100.00;99605.69;6075105;19;20015;-75
2024/01/18 02:43:51;;;;;;;3.30;1.17;;;;;;;-1.77;100.00;99606.53;6081480;19;20021;-76
2024/01/18 02:45:56;;;;;;;1.52;1.42;;;;;;;-1.90;100.00;99610.94;6083786;19;20038;-76
2024/01/18 02:48:02;;;;;;;1.65;1.23;;;;;;;-2.02;100.00;99605.91;6079196;19;20006;-75
2024/01/18 02:50:08;;;;;;;1.58;1.45;;;;;;;-2.10;100.00;99612.88;6083256;19;20028;-78
2024/01/18 02:52:14;;;;;;;9.75;1.58;;;;;;;-2.13;100.00;99611.16;6081289;19;20498;-75
2024/01/18 02:54:18;;;;;;;1.05;1.05;;;;;;;-2.18;100.00;99609.50;6077276;19;20336;-76
2024/01/18 02:56:24;;;;;;;1.52;1.08;;;;;;;-2.19;100.00;99607.78;6072884;19;20470;-76
2024/01/18 02:58:30;;;;;;;2.63;1.38;;;;;;;-2.26;100.00;99610.41;6085708;19;20042;-76
2024/01/18 03:00:38;;;;;;;1.15;1.13;;;;;;;-2.30;100.00;99619.00;6082027;19;20038;-76
2024/01/18 03:02:44;;;;;;;2.40;1.25;;;;;;;-2.32;100.00;99613.00;6080854;19;20009;-76
2024/01/18 03:04:49;;;;;;;1.40;1.30;;;;;;;-2.40;100.00;99608.81;6083577;19;20113;-76
2024/01/18 03:06:54;;;;;;;1.55;1.45;;;;;;;-2.45;100.00;99625.16;6081718;19;20592;-76
2024/01/18 03:09:01;;;;;;;3.05;1.58;;;;;;;-2.52;100.00;99620.06;6080493;19;20038;-76
2024/01/18 03:11:09;;;;;;;2.65;1.60;;;;;;;-2.57;100.00;99617.50;6081482;19;20015;-74
2024/01/18 03:13:16;;;;;;;3.25;1.75;;;;;;;-2.66;100.00;99622.69;6081551;19;20042;-75
2024/01/18 03:15:19;;;;;;;1.27;1.20;;;;;;;-2.68;100.00;99625.28;6079732;19;20042;-74
2024/01/18 03:17:26;;;;;;;1.48;1.35;;;;;;;-2.79;100.00;99624.50;6075913;19;20014;-74
2024/01/18 03:19:34;;;;;;;0.93;0.93;;;;;;;-2.88;100.00;99634.84;6083591;19;20319;-73
2024/01/18 03:21:39;;;;;;;1.42;1.15;;;;;;;-2.94;100.00;99634.88;6082594;19;20094;-75
2024/01/18 03:23:44;;;;;;;1.38;1.17;;;;;;;-2.95;100.00;99640.84;6078034;19;20011;-74
2024/01/18 03:25:49;;;;;;;2.22;1.30;;;;;;;-3.03;100.00;99642.63;6084007;19;20015;-74
2024/01/18 03:27:54;;;;;;;1.48;1.17;;;;;;;-3.08;100.00;99637.53;6083493;19;20030;-75
2024/01/18 03:29:59;;;;;;;1.10;1.10;;;;;;;-3.09;100.00;99638.34;6081236;19;20018;-75
2024/01/18 03:32:04;;;;;;;1.65;1.17;;;;;;;-3.15;100.00;99635.81;6084314;19;20014;-76
2024/01/18 03:34:12;;;;;;;1.42;1.33;;;;;;;-3.15;100.00;99638.41;6082315;19;20252;-76
2024/01/18 03:36:17;;;;;;;1.63;1.20;;;;;;;-3.16;100.00;99646.94;6086806;19;20014;-74
2024/01/18 03:38:22;;;;;;;1.40;1.40;;;;;;;-3.20;100.00;99643.53;6084055;19;20462;-74
2024/01/18 03:40:28;;;;;;;3.90;1.20;;;;;;;-3.16;100.00;99652.97;6088270;19;20010;-74
2024/01/18 03:42:30;;;;;;;1.45;1.40;;;;;;;-3.19;100.00;99650.38;6088185;19;20164;-77
2024/01/18 03:44:36;;;;;;;;;;;;;;;-3.29;100.00;99645.28;6087861;19;20019;-74
2024/01/18 03:46:41;;;;;;;1.65;1.23;;;;;;;-3.26;100.00;99640.16;6083280;19;19914;-77
2024/01/18 03:48:46;;;;;;;1.35;1.25;;;;;;;-3.21;100.00;99644.41;6088854;19;20014;-76
2024/01/18 03:50:56;;;;;;;1.88;1.70;;;;;;;-3.25;100.00;99640.13;6088744;19;21345;-74
2024/01/18 03:53:02;;;;;;;1.40;1.30;;;;;;;-3.28;100.00;99649.59;6084379;19;20046;-75
2024/01/18 03:55:08;;;;;;;1.10;1.05;;;;;;;-3.31;100.00;99648.72;6087698;19;20030;-72
2024/01/18 03:57:13;;;;;;;1.42;1.33;;;;;;;-3.38;100.00;99646.19;6092436;19;20002;-72
2024/01/18 03:59:23;;;;;;;1.80;1.45;;;;;;;-3.39;100.00;99649.63;6085789;19;20007;-73
2024/01/18 04:01:33;;;;;;;1.98;1.85;;;;;;;-3.43;100.00;99653.03;6083882;19;20014;-73
2024/01/18 04:03:42;;;;;;;1.65;1.45;;;;;;;-3.48;100.00;99650.47;6086378;19;20355;-72
2024/01/18 04:05:48;;;;;;;1.38;1.38;;;;;;;-3.49;100.00;99653.06;6088783;19;20014;-73
2024/01/18 04:07:58;;;;;;;2.35;1.58;;;;;;;-3.55;100.00;99661.66;6085437;19;20543;-73
2024/01/18 04:10:07;;;;;;;1.38;1.27;;;;;;;-3.62;100.00;99658.22;6088051;19;20516;-73
2024/01/18 04:12:13;;;;;;;5.60;1.52;;;;;;;-3.69;100.00;99656.53;6083732;19;20027;-75
2024/01/18 04:14:19;;;;;;;1.30;1.20;;;;;;;-3.67;100.00;99666.81;6082904;19;20011;-73
2024/01/18 04:16:24;;;;;;;1.80;1.38;;;;;;;-3.72;100.00;99666.78;6088574;19;20044;-75
2024/01/18 04:18:30;;;;;;;1.20;1.10;;;;;;;-3.69;100.00;99666.78;6087659;19;20129;-77
2024/01/18 04:20:35;;;;;;;2.53;1.95;;;;;;;-3.73;100.00;99670.22;6086452;19;20026;-77
2024/01/18 04:22:40;;;;;;;1.83;1.40;;;;;;;-3.78;100.00;99670.22;6085143;19;20018;-77
2024/01/18 04:24:48;;;;;;;4.15;1.40;;;;;;;-3.81;100.00;99666.81;6089091;19;20534;-74
2024/01/18 04:26:53;;;;;;;8.50;1.50;;;;;;;-3.80;100.00;99668.53;6087611;19;20492;-77
2024/01/18 04:28:58;;;;;;;2.15;1.95;;;;;;;-3.78;100.00;99667.66;6084687;19;20702;-74
2024/01/18 04:31:03;;;;;;;1.60;1.50;;;;;;;-3.74;100.00;99671.06;6086543;19;20011;-75
2024/01/18 04:33:08;;;;;;;4.13;2.28;;;;;;;-3.75;100.00;99669.38;6088537;19;20123;-79
2024/01/18 04:35:16;;;;;;;1.83;1.67;;;;;;;-3.80;100.00;99678.78;6085816;19;20448;-77
2024/01/18 04:37:21;;;;;;;7.57;1.60;;;;;;;-3.86;100.00;99686.50;6085038;19;20011;-78
2024/01/18 04:39:27;;;;;;;2.28;1.60;;;;;;;-3.87;100.00;99677.06;6088105;19;20014;-76
2024/01/18 04:41:35;;;;;;;2.50;1.30;;;;;;;-3.83;100.00;99689.91;6087087;19;20010;-75
2024/01/18 04:43:40;;;;;;;2.92;1.50;;;;;;;-3.87;100.00;99692.47;6083777;19;20011;-76
2024/01/18 04:45:43;;;;;;;1.80;1.70;;;;;;;-3.87;100.00;99703.63;6087288;19;20017;-76
2024/01/18 04:47:52;;;;;;;1.70;1.20;;;;;;;-3.85;100.00;99708.72;6087542;19;20011;-75
2024/01/18 04:49:57;;;;;;;1.63;1.52;;;;;;;-3.90;100.00;99706.16;6087855;19;20077;-76
2024/01/18 04:52:02;;;;;;;1.70;1.60;;;;;;;-3.94;100.00;99701.06;6079806;19;20842;-76
2024/01/18 04:54:07;;;;;;;1.45;1.35;;;;;;;-3.92;100.00;99701.88;6083262;19;20007;-75
2024/01/18 04:56:12;;;;;;;2.28;1.30;;;;;;;-3.96;100.00;99690.78;6086792;19;20356;-75
2024/01/18 04:58:20;;;;;;;1.83;1.67;;;;;;;-3.99;100.00;99694.19;6084291;19;20035;-75
2024/01/18 05:00:24;;;;;;;1.60;1.50;;;;;;;-3.95;100.00;99695.03;6084533;19;20422;-75
2024/01/18 05:02:29;;;;;;;1.83;1.42;;;;;;;-3.93;100.00;99701.03;6087643;19;20086;-75
2024/01/18 05:04:35;;;;;;;1.30;1.30;;;;;;;-3.95;100.00;99704.44;6083998;19;20794;-74
2024/01/18 05:06:40;;;;;;;3.53;2.15;;;;;;;-4.00;100.00;99704.47;6082104;19;20027;-75
2024/01/18 05:08:45;;;;;;;3.60;1.55;;;;;;;-4.01;100.00;99706.16;6081435;19;20011;-75
2024/01/18 05:10:50;;;;;;;1.95;1.85;;;;;;;-4.01;100.00;99708.72;6086537;19;20007;-74
2024/01/18 05:12:56;;;;;;;2.67;2.22;;;;;;;-3.96;100.00;99713.88;6083268;19;20195;-76
2024/01/18 05:15:04;;;;;;;3.70;1.85;;;;;;;-3.95;100.00;99709.59;6082922;19;20018;-76
2024/01/18 05:17:10;;;;;;;3.17;2.55;;;;;;;-3.94;100.00;99721.59;6087532;19;20093;-75
2024/01/18 05:19:16;;;;;;;5.88;2.67;;;;;;;-4.06;100.00;99722.41;6086626;19;20027;-75
2024/01/18 05:21:23;;;;;;;2.65;2.08;;;;;;;-4.09;100.00;99724.97;6081347;19;20010;-75
2024/01/18 05:23:29;;;;;;;18.33;2.40;;;;;;;-4.13;100.00;99731.84;6085827;19;20015;-75
2024/01/18 05:25:35;;;;;;;2.17;1.92;;;;;;;-4.14;100.00;99731.81;6085176;19;20002;-75
2024/01/18 05:27:40;;;;;;;4.57;2.65;;;;;;;-4.17;100.00;99730.09;6082299;19;20038;-75
2024/01/18 05:29:42;;;;;;;1.70;1.60;;;;;;;-4.24;100.00;99736.94;6084316;19;20010;-75
2024/01/18 05:31:53;;;;;;;2.45;1.98;;;;;;;-4.25;100.00;99749.75;6085282;19;20014;-75
2024/01/18 05:33:56;;;;;;;2.22;1.77;;;;;;;-4.30;100.00;99746.31;6085125;19;20264;-75
2024/01/18 05:36:02;;;;;;;3.03;2.20;;;;;;;-4.21;100.00;99751.50;6081860;19;20568;-75
2024/01/18 05:38:07;;;;;;;2.80;1.80;;;;;;;-4.21;100.00;99748.94;6083691;19;20006;-73
2024/01/18 05:40:13;;;;;;;3.63;2.00;;;;;;;-4.17;100.00;99760.88;6087032;19;20014;-75
2024/01/18 05:42:18;;;;;;;3.42;2.53;;;;;;;-4.12;100.00;99759.19;6083924;19;20006;-73
2024/01/18 05:44:26;;;;;;;1.70;1.60;;;;;;;-4.11;100.00;99763.44;6084379;19;20014;-74
2024/01/18 05:46:31;;;;;;;2.03;1.92;;;;;;;-4.20;100.00;99756.59;6086637;19;20011;-74
2024/01/18 05:48:39;;;;;;;1.85;1.70;;;;;;;-4.25;100.00;99758.31;6087882;19;20346;-74
2024/01/18 05:50:45;;;;;;;4.57;2.42;;;;;;;-4.28;100.00;99767.72;6080512;19;20006;-75
2024/01/18 05:52:47;;;;;;;2.20;2.00;;;;;;;-4.26;100.00;99766.00;6080739;19;20011;-74
2024/01/18 05:54:52;;;;;;;2.53;2.20;;;;;;;-4.22;100.00;99773.69;6082658;19;20011;-75
2024/01/18 05:56:55;;;;;;;3.42;1.92;;;;;;;-4.22;100.00;99775.41;6080971;19;20484;-75
2024/01/18 05:59:03;;;;;;;3.55;2.88;;;;;;;-4.21;100.00;99779.72;6082276;19;20011;-75
2024/01/18 06:01:05;;;;;;;3.63;2.13;;;;;;;-4.20;100.00;99776.28;6086033;19;20021;-75
2024/01/18 06:03:11;;;;;;;3.00;2.40;;;;;;;-4.18;100.00;99774.56;6084024;19;20015;-75
2024/01/18 06:05:18;;;;;;;3.17;2.35;;;;;;;-4.22;100.00;99780.53;6080671;19;20812;-73
2024/01/18 06:07:24;;;;;;;8.25;2.63;;;;;;;-4.24;100.00;99780.56;6084961;19;20519;-74
2024/01/18 06:09:29;;;;;;;3.15;2.40;;;;;;;-4.27;100.00;99787.38;6085627;19;20010;-73
2024/01/18 06:11:35;;;;;;;2.63;2.08;;;;;;;-4.35;100.00;99781.34;6080211;19;20347;-75
2024/01/18 06:13:40;;;;;;;2.60;2.40;;;;;;;-4.35;100.00;99789.91;6080564;19;19998;-74
2024/01/18 06:15:45;;;;;;;2.83;2.42;;;;;;;-4.34;100.00;99789.06;6082820;19;20098;-74
2024/01/18 06:17:50;;;;;;;3.05;1.88;;;;;;;-4.36;100.00;99792.47;6083266;19;20107;-74
2024/01/18 06:19:56;;;;;;;4.35;2.58;;;;;;;-4.33;100.00;99790.78;6081596;19;20108;-73
2024/01/18 06:22:03;;;;;;;2.28;1.95;;;;;;;-4.37;100.00;99798.44;6083951;19;20013;-74
2024/01/18 06:24:09;;;;;;;4.50;2.25;;;;;;;-4.35;100.00;99805.28;6077313;19;20010;-74
2024/01/18 06:26:16;;;;;;;3.08;2.78;;;;;;;-4.37;100.00;99801.00;6079977;19;20014;-74
2024/01/18 06:28:21;;;;;;;3.38;2.95;;;;;;;-4.37;100.00;99812.16;6078894;19;20003;-74
2024/01/18 06:30:26;;;;;;;2.83;1.55;;;;;;;-4.30;100.00;99816.41;6083066;19;20098;-74
2024/01/18 06:32:32;;;;;;;2.75;2.10;;;;;;;-4.28;100.00;99819.00;6083524;19;20466;-74
2024/01/18 06:34:37;;;;;;;2.38;2.17;;;;;;;-4.26;100.00;99815.59;6081493;19;20028;-73
2024/01/18 06:36:42;;;;;;;2.03;1.92;;;;;;;-4.32;100.00;99817.28;6082624;19;20035;-74
2024/01/18 06:38:50;;;;;;;2.90;1.92;;;;;;;-4.39;100.00;99813.00;6083508;19;20039;-73
2024/01/18 06:40:58;;;;;;;3.60;2.15;;;;;;;-4.41;100.00;99811.25;6082398;19;20093;-75
2024/01/18 06:43:03;;;;;;;1.73;1.63;;;;;;;-4.44;100.00;99813.81;6082784;19;20011;-75
2024/01/18 06:45:10;;;;;;;2.50;2.38;;;;;;;-4.41;100.00;99823.22;6084859;19;20458;-73
2024/01/18 06:47:17;;;;;;;3.65;3.05;;;;;;;-4.36;100.00;99836.09;6083530;19;19998;-73
2024/01/18 06:49:23;;;;;;;4.28;2.67;;;;;;;-4.41;100.00;99836.06;6081015;19;20026;-75
2024/01/18 06:51:31;;;;;;;2.50;2.30;;;;;;;-4.41;100.00;99846.31;6084179;19;20522;-75
2024/01/18 06:53:37;;;;;;;2.97;2.33;;;;;;;-4.47;100.00;99843.72;6083343;19;20356;-74
2024/01/18 06:55:45;;;;;;;5.50;2.33;;;;;;;-4.47;100.00;99848.84;6081181;19;20015;-74
2024/01/18 06:57:52;;;;;;;2.95;1.98;;;;;;;-4.49;100.00;99846.28;6080019;19;20011;-74
2024/01/18 06:59:57;;;;;;;2.47;2.28;;;;;;;-4.45;100.00;99855.72;6079492;19;20033;-74
2024/01/18 07:02:02;;;;;;;3.50;2.42;;;;;;;-4.41;100.00;99854.00;6083887;19;20014;-75
2024/01/18 07:04:07;;;;;;;4.28;2.40;;;;;;;-4.42;100.00;99855.72;6081860;19;20017;-73
2024/01/18 07:06:13;;;;;;;2.10;1.98;;;;;;;-4.41;100.00;99865.13;6081108;19;20010;-74
2024/01/18 07:08:19;;;;;;;3.60;2.58;;;;;;;-4.44;100.00;99859.13;6090084;19;20019;-73
2024/01/18 07:10:24;;;;;;;2.25;1.90;;;;;;;-4.27;100.00;99879.69;6089239;19;20331;-73
2024/01/18 07:12:32;;;;;;;3.65;2.72;;;;;;;-4.33;100.00;99874.56;6087203;19;20015;-73
2024/01/18 07:14:39;;;;;;;4.43;2.25;;;;;;;-4.35;100.00;99878.81;6091801;19;20086;-74
2024/01/18 07:16:44;;;;;;;2.65;2.03;;;;;;;-4.40;100.00;99878.78;6081882;19;20041;-73
2024/01/18 07:18:49;;;;;;;1.58;1.50;;;;;;;-4.41;100.00;99875.38;6083473;19;20354;-72
2024/01/18 07:20:54;;;;;;;3.55;2.33;;;;;;;-4.42;100.00;99877.94;6086948;19;20365;-74
2024/01/18 07:22:59;;;;;;;3.35;1.85;;;;;;;-4.35;100.00;99884.78;6088932;19;20021;-72
2024/01/18 07:25:05;;;;;;;4.60;3.08;;;;;;;-4.44;100.00;99875.34;6086945;19;20003;-74
2024/01/18 07:27:11;;;;;;;2.42;2.22;;;;;;;-4.47;100.00;99882.19;6087738;19;20035;-74
2024/01/18 07:29:16;;;;;;;3.17;2.42;;;;;;;-4.46;100.00;99889.88;6090958;19;20086;-74
2024/01/18 07:31:21;;;;;;;2.42;2.15;;;;;;;-4.43;100.00;99886.47;6089432;19;20519;-74
2024/01/18 07:33:27;;;;;;;3.35;2.05;;;;;;;-4.40;100.00;99894.16;6079985;19;20011;-74
2024/01/18 07:35:32;;;;;;;3.10;2.25;;;;;;;-4.46;100.00;99897.56;6089852;19;20015;-73
2024/01/18 07:37:37;;;;;;;10.23;3.50;;;;;;;-4.43;100.00;99900.13;6087657;19;20031;-73
2024/01/18 07:39:40;;;;;;;2.28;2.08;;;;;;;-4.41;100.00;99898.44;6086598;19;20359;-74
2024/01/18 07:41:45;;;;;;;2.67;2.08;;;;;;;-4.47;100.00;99905.28;6087866;19;20018;-74
2024/01/18 07:43:50;;;;;;;2.38;2.17;;;;;;;-4.49;100.00;99907.81;6089442;19;20043;-74
2024/01/18 07:45:58;;;;;;;5.72;2.80;;;;;;;-4.45;100.00;99907.00;6089397;19;20465;-74
2024/01/18 07:48:03;;;;;;;3.85;2.30;;;;;;;-4.41;100.00;99915.53;6084271;19;20020;-73
2024/01/18 07:50:11;;;;;;;3.72;2.40;;;;;;;-4.43;100.00;99922.38;6087543;19;20059;-74
2024/01/18 07:52:36;;;;;;;2.25;1.60;;;;;;;-4.41;100.00;99924.09;6086744;19;20010;-74
2024/01/18 07:54:41;;;;;;;1.65;1.52;;;;;;;-4.44;100.00;99921.50;6083903;19;20375;-74
2024/01/18 07:56:46;;;;;;;2.83;2.10;;;;;;;-4.43;100.00;99919.81;6086258;19;20018;-74
2024/01/18 07:58:52;;;;;;;3.33;2.05;;;;;;;-4.43;100.00;99924.94;6087238;19;20046;-74
2024/01/18 08:00:57;;;;;;;5.57;2.50;;;;;;;-4.48;100.00;99924.03;6085049;19;20025;-75
2024/01/18 08:03:02;;;;;;;5.63;2.67;;;;;;;-4.46;100.00;99927.47;6083731;19;20035;-73
2024/01/18 08:05:09;;;;;;;2.97;1.80;;;;;;;-4.48;100.00;99931.75;6089331;19;20010;-72
2024/01/18 08:07:15;;;;;;;2.00;1.90;;;;;;;-4.46;100.00;99933.47;6082955;19;20049;-72
2024/01/18 08:09:20;;;;;;;2.55;2.38;;;;;;;-4.46;100.00;99938.59;6081149;19;20003;-74
2024/01/18 08:11:23;;;;;;;3.45;2.22;;;;;;;-4.49;100.00;99943.72;6083876;19;20015;-74
2024/01/18 08:13:31;;;;;;;2.45;2.05;;;;;;;-4.44;100.00;99942.03;6089893;19;20014;-73
2024/01/18 08:15:36;;;;;;;3.80;2.33;;;;;;;-4.42;100.00;99937.78;6085500;19;20018;-75
2024/01/18 08:17:45;;;;;;;3.88;2.45;;;;;;;-4.37;100.00;99952.31;6084456;19;20017;-73
2024/01/18 08:19:51;;;;;;;3.75;2.88;;;;;;;-4.36;100.00;99954.03;6089647;19;20364;-73
2024/01/18 08:21:57;;;;;;;3.55;2.42;;;;;;;-4.34;100.00;99970.31;6087985;19;20011;-73
2024/01/18 08:24:03;;;;;;;10.18;3.90;;;;;;;-4.37;100.00;99973.72;6084546;19;20022;-73
2024/01/18 08:26:06;;;;;;;5.38;2.75;;;;;;;-4.36;100.00;99969.44;6087688;19;20653;-73
2024/01/18 08:28:13;;;;;;;3.15;2.17;;;;;;;-4.27;100.00;99961.78;6083234;19;20011;-73
2024/01/18 08:30:19;;;;;;;6.03;2.35;;;;;;;-4.26;100.00;99966.06;6087992;19;20013;-73
2024/01/18 08:32:28;;;;;;;6.38;2.90;;;;;;;-4.20;100.00;99977.22;6082810;19;20220;-73
2024/01/18 08:34:36;;;;;;;2.38;2.20;;;;;;;-4.11;100.00;99984.09;6088667;19;20407;-73
2024/01/18 08:36:41;;;;;;;4.53;2.97;;;;;;;-3.97;100.00;99995.28;6088025;19;20554;-73
2024/01/18 08:38:46;;;;;;;7.07;3.15;;;;;;;-3.99;100.00;99994.44;6084130;19;20105;-73
2024/01/18 08:40:51;;;;;;;3.42;2.67;;;;;;;-4.00;100.00;99991.88;6087530;19;20007;-73
2024/01/18 08:42:56;;;;;;;3.58;2.58;;;;;;;-3.91;100.00;99996.19;6086047;19;20011;-73
2024/01/18 08:45:03;;;;;;;4.38;2.03;;;;;;;-3.90;100.00;99995.31;6085474;19;20007;-73
2024/01/18 08:47:10;;;;;;;5.47;2.63;;;;;;;-3.78;100.00;100006.50;6083073;19;20089;-74
2024/01/18 08:49:16;;;;;;;4.63;2.65;;;;;;;-3.77;100.00;100007.34;6086397;19;20011;-73
2024/01/18 08:51:24;;;;;;;2.67;2.30;;;;;;;-3.61;100.00;100003.97;6089033;19;20245;-73
2024/01/18 08:53:30;;;;;;;3.03;2.83;;;;;;;-3.56;100.00;100012.56;6080803;19;20002;-73
2024/01/18 08:55:40;;;;;;;6.85;3.17;;;;;;;-3.39;100.00;100009.22;6086972;19;20007;-73
2024/01/18 08:57:45;;;;;;;4.47;3.05;;;;;;;-3.35;100.00;100010.91;6085993;19;20010;-74
2024/01/18 08:59:50;;;;;;;5.00;3.20;;;;;;;-3.28;100.00;100022.09;6085060;19;19999;-73
2024/01/18 09:01:55;;;;;;;6.80;2.85;;;;;;;-3.21;100.00;100027.25;6081643;19;21042;-73
2024/01/18 09:04:06;;;;;;;2.83;2.63;;;;;;;-2.96;100.00;100030.69;6084789;19;20017;-73
2024/01/18 09:06:11;;;;;;;2.90;2.45;;;;;;;-2.94;100.00;100023.00;6086577;19;20504;-75
2024/01/18 09:08:19;;;;;;;2.92;2.30;;;;;;;-2.83;100.00;100023.88;6083374;19;20034;-75
2024/01/18 09:10:25;;;;;;;3.85;3.42;;;;;;;-2.71;100.00;100026.44;6085094;19;20567;-74
2024/01/18 09:12:30;;;;;;;3.95;2.80;;;;;;;-2.72;100.00;100024.72;6085603;19;20078;-74
2024/01/18 09:14:36;;;;;;;3.55;2.65;;;;;;;-2.67;100.00;100029.88;6088416;19;20006;-74
2024/01/18 09:16:40;;;;;;;7.78;2.85;;;;;;;-2.56;100.00;100042.72;6084188;19;20460;-73
2024/01/18 09:18:46;;;;;;;6.88;3.17;;;;;;;-2.41;100.00;100035.00;6086521;19;20007;-73
2024/01/18 09:21:09;;;;;;;8.20;3.97;;;;;;;-2.24;100.00;100038.44;6087090;19;20048;-74
2024/01/18 09:23:14;;;;;;;4.20;2.47;;;;;;;-1.93;100.00;100042.66;6077846;19;20011;-74
2024/01/18 09:25:22;;;;;;;4.28;2.35;;;;;;;-1.68;100.00;100057.19;6084529;19;20011;-73
2024/01/18 09:27:27;;;;;;;6.70;3.30;;;;;;;-1.34;100.00;100068.22;6086607;19;20037;-72
2024/01/18 09:29:33;;;;;;;6.22;3.75;;;;;;;-0.92;100.00;100096.38;6083280;19;20043;-72
2024/01/18 09:31:38;;;;;;;4.95;2.88;;;;;;;-0.60;100.00;100103.91;6081863;19;20006;-73
2024/01/18 09:33:47;;;;;;;2.25;1.70;;;;;;;-0.50;100.00;100108.13;6085721;19;20043;-74
2024/01/18 09:35:52;;;;;;;3.42;2.25;;;;;;;-0.51;100.00;100121.88;6085734;19;20055;-73
2024/01/18 09:37:57;;;;;;;2.03;1.42;;;;;;;-0.58;100.00;100124.53;6081989;19;20268;-72
2024/01/18 09:40:03;;;;;;;2.42;1.50;;;;;;;-0.57;100.00;100131.41;6081674;19;20581;-72
2024/01/18 09:42:16;;;;;;;1.70;1.60;;;;;;;-0.53;100.00;100128.78;6085723;19;20118;-72
2024/01/18 09:44:27;;;;;;;1.70;1.60;;;;;;;-0.52;100.00;100140.00;5996585;19;2004644;-72
2024/01/18 09:46:32;;;;;;;1.08;1.08;;;;;;;-0.46;100.00;100137.34;6082728;19;20078;-72